LOWWLOWS

Guest
Details From LOWW - Wien Schwechat
To LOWS - Salzburg Maxglan
Flight Number -
Tags Generated
Created
Modified
Stats Distance 145 nm / 269 km
Max Altitude 0 ft / 0 m
Waypoints 2
Social Downloads 8
Likes 0
Share VATSIM

Download

Looking for another format? Having issues loading an existing format? Contact us
Advertisement - Login to hide

Notes

Generated

Route

LOWW LOWS

ID Type Via Altitude Latitude Longitude Leg Dist Tot Dist Heading (true) Name
O LOWW APT - 0 ft / 0 m 48.11978˚ 16.57818˚ - 0 nm - -
O LOWS APT - 0 ft / 0 m 47.80472˚ 12.99717˚ 145 nm 145 nm 264° / 261° -

Altitude Profile

Advertisement - Login to hide

LOWW

Details ICAO LOWW (VIE)
Name Wien Schwechat
Region Austria
Timezone Europe/Vienna (UTC+2.0)
Stats Elevation 600 ft / 183 m (AMSL)
Location 48.110068° 16.569637°
Runways 2
Magnetic Variation 4.307° E

METAR

LOWW 200950Z 07004KT 330V130 9999 FEW040 BKN350 20/10 Q1022 NOSIG

Decode

TAF

TAF LOWW 200815Z 2009/2115 04006KT 9999 FEW040 BKN200 TX23/2115Z TN11/2103Z BECMG 2009/2012 09006KT PROB30 TEMPO 2011/2018 FEW050CB BKN200 BECMG 2018/2020 VRB02KT CAVOK BECMG 2107/2109 13009KT 9999 FEW050 SCT250

Decode

Departure Runways

ID Width Length Bearing (true) Bearing (mag) Surface Threshold Offset Overrun Length
11 148 ft / 45 m 11,457 ft / 3,492 m 115.99° 111.68° Asphalt 0 ft / 0 m 0 ft / 0 m
16 148 ft / 45 m 11,811 ft / 3,600 m 164.23° 159.92° Asphalt 0 ft / 0 m 33 ft / 10 m
29 148 ft / 45 m 11,457 ft / 3,492 m 296.03° 291.72° Asphalt 0 ft / 0 m 0 ft / 0 m
34 148 ft / 45 m 11,811 ft / 3,600 m 344.24° 339.93° Asphalt 0 ft / 0 m 0 ft / 0 m

LOWS

Details ICAO LOWS (SZG)
Name Salzburg Maxglan
Region Austria
Timezone Europe/Vienna (UTC+2.0)
Stats Elevation 1,411 ft / 430 m (AMSL)
Location 47.793333° 13.004333°
Runways 1
Magnetic Variation 3.479° E

METAR

LOWS 200950Z VRB04KT 9999 FEW021 SCT120 18/12 Q1019 NOSIG

Decode

TAF

TAF TAF LOWS 200515Z 2006/2106 VRB02KT 9999 FEW050 BKN100 TX21/2013Z TN10/2103Z TEMPO 2006/2008 FEW004 BKN009 BECMG 2006/2008 04007KT TEMPO 2009/2018 06010G20KT TEMPO 2012/2018 SHRA FEW040TCU BKN060 PROB30 TEMPO 2013/2018 TSRA FEW040CB BKN050 BECMG 2018/2020 15005KT CAVOK

Decode

Destination Runways

ID Width Length Bearing (true) Bearing (mag) Surface Threshold Offset Overrun Length
16 148 ft / 45 m 9,024 ft / 2,751 m 157.08° 153.60° Concrete 656 ft / 200 m 0 ft / 0 m
34 148 ft / 45 m 9,024 ft / 2,751 m 337.09° 333.61° Concrete 787 ft / 240 m 0 ft / 0 m

Approach Navaids

Runway Type Ident Frequency Range Bearing (true) Bearing (mag) Slope Elevation
16 Localiser OES 109.90 MHz 18 nm / 33 km 157.53° 154.06° - 1,411 ft / 430 m (AMSL)
16 Glidescope OES 109.90 MHz 10 nm / 19 km 157.09° 153.61° 3.00° 1,446 ft / 441 m (AMSL)
16 DME OES 109.90 MHz 18 nm / 33 km - - - 1,446 ft / 441 m (AMSL)

Popular Alternatives